sensor_id;sensor_type;location;lat;lon;timestamp;P1;durP1;ratioP1;P2;durP2;ratioP2
48002;SDS011;33768;48.578;11.574;2023-07-13T00:02:09;4.70;;;3.23;;
48002;SDS011;33768;48.578;11.574;2023-07-13T00:05:13;3.13;;;2.83;;
48002;SDS011;33768;48.578;11.574;2023-07-13T00:08:17;4.90;;;2.97;;
48002;SDS011;33768;48.578;11.574;2023-07-13T00:11:22;3.90;;;3.40;;
48002;SDS011;33768;48.578;11.574;2023-07-13T00:14:26;3.53;;;3.13;;
48002;SDS011;33768;48.578;11.574;2023-07-13T00:17:31;4.23;;;3.20;;
48002;SDS011;33768;48.578;11.574;2023-07-13T00:20:36;3.50;;;3.10;;
48002;SDS011;33768;48.578;11.574;2023-07-13T00:23:40;7.20;;;3.60;;
48002;SDS011;33768;48.578;11.574;2023-07-13T00:26:46;4.30;;;3.40;;
48002;SDS011;33768;48.578;11.574;2023-07-13T00:29:50;7.43;;;3.23;;
48002;SDS011;33768;48.578;11.574;2023-07-13T00:32:54;7.10;;;3.23;;
48002;SDS011;33768;48.578;11.574;2023-07-13T00:35:58;5.33;;;3.50;;
48002;SDS011;33768;48.578;11.574;2023-07-13T00:39:03;3.57;;;3.10;;
48002;SDS011;33768;48.578;11.574;2023-07-13T00:42:09;6.43;;;3.60;;
48002;SDS011;33768;48.578;11.574;2023-07-13T00:48:19;6.10;;;3.57;;
48002;SDS011;33768;48.578;11.574;2023-07-13T00:51:27;7.13;;;3.40;;
48002;SDS011;33768;48.578;11.574;2023-07-13T00:54:36;4.53;;;3.80;;
48002;SDS011;33768;48.578;11.574;2023-07-13T00:57:43;12.67;;;3.60;;
48002;SDS011;33768;48.578;11.574;2023-07-13T01:00:47;5.57;;;3.47;;
48002;SDS011;33768;48.578;11.574;2023-07-13T01:03:52;5.60;;;3.77;;
48002;SDS011;33768;48.578;11.574;2023-07-13T01:06:58;5.83;;;3.30;;
48002;SDS011;33768;48.578;11.574;2023-07-13T01:10:02;5.03;;;3.57;;
48002;SDS011;33768;48.578;11.574;2023-07-13T01:13:08;4.67;;;3.83;;
48002;SDS011;33768;48.578;11.574;2023-07-13T01:16:15;7.57;;;3.97;;
48002;SDS011;33768;48.578;11.574;2023-07-13T01:19:35;4.77;;;3.73;;
48002;SDS011;33768;48.578;11.574;2023-07-13T01:22:46;9.50;;;4.07;;
48002;SDS011;33768;48.578;11.574;2023-07-13T01:25:50;7.33;;;4.07;;
48002;SDS011;33768;48.578;11.574;2023-07-13T01:28:55;4.83;;;3.60;;
48002;SDS011;33768;48.578;11.574;2023-07-13T01:32:00;6.43;;;4.10;;
48002;SDS011;33768;48.578;11.574;2023-07-13T01:35:04;5.87;;;4.13;;
48002;SDS011;33768;48.578;11.574;2023-07-13T01:38:09;9.07;;;3.67;;
48002;SDS011;33768;48.578;11.574;2023-07-13T01:41:13;10.30;;;3.60;;
48002;SDS011;33768;48.578;11.574;2023-07-13T01:44:18;4.97;;;3.77;;
48002;SDS011;33768;48.578;11.574;2023-07-13T01:47:22;5.80;;;3.90;;
48002;SDS011;33768;48.578;11.574;2023-07-13T01:50:27;5.50;;;3.97;;
48002;SDS011;33768;48.578;11.574;2023-07-13T01:53:31;9.10;;;4.37;;
48002;SDS011;33768;48.578;11.574;2023-07-13T01:56:35;7.30;;;4.30;;
48002;SDS011;33768;48.578;11.574;2023-07-13T01:59:40;7.00;;;4.07;;
48002;SDS011;33768;48.578;11.574;2023-07-13T02:02:44;6.23;;;3.90;;
48002;SDS011;33768;48.578;11.574;2023-07-13T02:05:48;6.83;;;3.93;;
48002;SDS011;33768;48.578;11.574;2023-07-13T02:08:52;9.17;;;3.70;;
48002;SDS011;33768;48.578;11.574;2023-07-13T02:11:57;9.53;;;4.37;;
48002;SDS011;33768;48.578;11.574;2023-07-13T02:15:01;8.00;;;3.63;;
48002;SDS011;33768;48.578;11.574;2023-07-13T02:18:06;5.67;;;3.60;;
48002;SDS011;33768;48.578;11.574;2023-07-13T02:21:10;5.17;;;3.87;;
48002;SDS011;33768;48.578;11.574;2023-07-13T02:24:15;8.23;;;4.70;;
48002;SDS011;33768;48.578;11.574;2023-07-13T02:27:21;7.67;;;4.60;;
48002;SDS011;33768;48.578;11.574;2023-07-13T02:30:27;10.13;;;4.80;;
48002;SDS011;33768;48.578;11.574;2023-07-13T02:33:33;9.93;;;5.30;;
48002;SDS011;33768;48.578;11.574;2023-07-13T02:36:37;5.50;;;4.17;;
48002;SDS011;33768;48.578;11.574;2023-07-13T02:39:41;7.23;;;4.70;;
48002;SDS011;33768;48.578;11.574;2023-07-13T02:42:45;11.30;;;5.63;;
48002;SDS011;33768;48.578;11.574;2023-07-13T02:45:50;9.00;;;5.00;;
48002;SDS011;33768;48.578;11.574;2023-07-13T02:48:55;9.00;;;5.43;;
48002;SDS011;33768;48.578;11.574;2023-07-13T02:51:59;9.17;;;5.27;;
48002;SDS011;33768;48.578;11.574;2023-07-13T02:55:03;9.73;;;5.30;;
48002;SDS011;33768;48.578;11.574;2023-07-13T02:58:07;13.93;;;4.83;;
48002;SDS011;33768;48.578;11.574;2023-07-13T03:01:12;9.87;;;5.37;;
48002;SDS011;33768;48.578;11.574;2023-07-13T03:04:16;8.27;;;5.03;;
48002;SDS011;33768;48.578;11.574;2023-07-13T03:07:23;9.13;;;5.20;;
48002;SDS011;33768;48.578;11.574;2023-07-13T03:10:29;7.87;;;4.93;;
48002;SDS011;33768;48.578;11.574;2023-07-13T03:13:34;9.20;;;5.93;;
48002;SDS011;33768;48.578;11.574;2023-07-13T03:16:40;8.20;;;4.90;;
48002;SDS011;33768;48.578;11.574;2023-07-13T03:19:44;7.93;;;5.50;;
48002;SDS011;33768;48.578;11.574;2023-07-13T03:22:49;6.73;;;5.47;;
48002;SDS011;33768;48.578;11.574;2023-07-13T03:26:02;8.33;;;5.23;;
48002;SDS011;33768;48.578;11.574;2023-07-13T03:29:16;6.13;;;5.47;;
48002;SDS011;33768;48.578;11.574;2023-07-13T03:32:21;8.17;;;5.30;;
48002;SDS011;33768;48.578;11.574;2023-07-13T03:35:26;8.37;;;5.07;;
48002;SDS011;33768;48.578;11.574;2023-07-13T03:38:31;7.30;;;5.23;;
48002;SDS011;33768;48.578;11.574;2023-07-13T03:41:35;7.37;;;4.50;;
48002;SDS011;33768;48.578;11.574;2023-07-13T03:44:40;7.67;;;4.30;;
48002;SDS011;33768;48.578;11.574;2023-07-13T03:47:44;6.53;;;4.47;;
48002;SDS011;33768;48.578;11.574;2023-07-13T03:50:48;8.57;;;4.20;;
48002;SDS011;33768;48.578;11.574;2023-07-13T03:53:55;7.47;;;4.77;;
48002;SDS011;33768;48.578;11.574;2023-07-13T03:57:00;8.10;;;4.37;;
48002;SDS011;33768;48.578;11.574;2023-07-13T04:00:06;11.13;;;4.50;;
48002;SDS011;33768;48.578;11.574;2023-07-13T04:03:19;7.43;;;3.80;;
48002;SDS011;33768;48.578;11.574;2023-07-13T04:06:27;6.47;;;3.90;;
48002;SDS011;33768;48.578;11.574;2023-07-13T04:09:33;6.50;;;3.70;;
48002;SDS011;33768;48.578;11.574;2023-07-13T04:12:38;10.03;;;3.50;;
48002;SDS011;33768;48.578;11.574;2023-07-13T04:15:42;4.93;;;3.20;;
48002;SDS011;33768;48.578;11.574;2023-07-13T04:18:46;8.60;;;3.90;;
48002;SDS011;33768;48.578;11.574;2023-07-13T04:21:51;10.73;;;3.90;;
48002;SDS011;33768;48.578;11.574;2023-07-13T04:24:55;7.13;;;3.63;;
48002;SDS011;33768;48.578;11.574;2023-07-13T04:28:00;9.67;;;3.23;;
48002;SDS011;33768;48.578;11.574;2023-07-13T04:31:04;8.33;;;4.00;;
48002;SDS011;33768;48.578;11.574;2023-07-13T04:34:08;9.17;;;3.60;;
48002;SDS011;33768;48.578;11.574;2023-07-13T04:37:12;6.10;;;3.43;;
48002;SDS011;33768;48.578;11.574;2023-07-13T04:40:17;6.83;;;3.63;;
48002;SDS011;33768;48.578;11.574;2023-07-13T04:43:22;10.53;;;3.40;;
48002;SDS011;33768;48.578;11.574;2023-07-13T04:46:27;6.33;;;3.37;;
48002;SDS011;33768;48.578;11.574;2023-07-13T04:49:31;7.50;;;3.77;;
48002;SDS011;33768;48.578;11.574;2023-07-13T04:52:35;8.17;;;3.57;;
48002;SDS011;33768;48.578;11.574;2023-07-13T04:55:39;7.50;;;3.47;;
48002;SDS011;33768;48.578;11.574;2023-07-13T04:58:44;6.57;;;3.53;;
48002;SDS011;33768;48.578;11.574;2023-07-13T05:01:48;7.77;;;3.10;;
48002;SDS011;33768;48.578;11.574;2023-07-13T05:04:53;12.40;;;2.93;;
48002;SDS011;33768;48.578;11.574;2023-07-13T05:07:57;5.83;;;3.00;;
48002;SDS011;33768;48.578;11.574;2023-07-13T05:11:04;6.57;;;3.00;;
48002;SDS011;33768;48.578;11.574;2023-07-13T05:14:09;7.67;;;3.03;;
48002;SDS011;33768;48.578;11.574;2023-07-13T05:17:13;8.10;;;2.70;;
48002;SDS011;33768;48.578;11.574;2023-07-13T05:20:18;7.13;;;2.93;;
48002;SDS011;33768;48.578;11.574;2023-07-13T05:23:23;5.73;;;2.87;;
48002;SDS011;33768;48.578;11.574;2023-07-13T05:26:27;6.73;;;2.77;;
48002;SDS011;33768;48.578;11.574;2023-07-13T05:29:31;5.87;;;2.60;;
48002;SDS011;33768;48.578;11.574;2023-07-13T05:32:36;4.43;;;2.70;;
48002;SDS011;33768;48.578;11.574;2023-07-13T05:35:40;4.50;;;2.70;;
48002;SDS011;33768;48.578;11.574;2023-07-13T05:38:44;6.10;;;2.33;;
48002;SDS011;33768;48.578;11.574;2023-07-13T05:41:48;4.50;;;2.50;;
48002;SDS011;33768;48.578;11.574;2023-07-13T05:44:52;7.50;;;2.73;;
48002;SDS011;33768;48.578;11.574;2023-07-13T05:47:56;3.47;;;2.57;;
48002;SDS011;33768;48.578;11.574;2023-07-13T05:51:00;4.57;;;2.50;;
48002;SDS011;33768;48.578;11.574;2023-07-13T05:54:05;5.37;;;2.83;;
48002;SDS011;33768;48.578;11.574;2023-07-13T05:57:09;6.27;;;2.63;;
48002;SDS011;33768;48.578;11.574;2023-07-13T06:00:13;7.30;;;2.43;;
48002;SDS011;33768;48.578;11.574;2023-07-13T06:03:18;6.17;;;2.40;;
48002;SDS011;33768;48.578;11.574;2023-07-13T06:06:22;5.43;;;2.50;;
48002;SDS011;33768;48.578;11.574;2023-07-13T06:09:27;5.97;;;2.50;;
48002;SDS011;33768;48.578;11.574;2023-07-13T06:12:31;4.17;;;2.70;;
48002;SDS011;33768;48.578;11.574;2023-07-13T06:15:35;6.13;;;2.07;;
48002;SDS011;33768;48.578;11.574;2023-07-13T06:18:39;7.47;;;2.50;;
48002;SDS011;33768;48.578;11.574;2023-07-13T06:21:44;5.30;;;1.90;;
48002;SDS011;33768;48.578;11.574;2023-07-13T06:24:48;4.00;;;1.87;;
48002;SDS011;33768;48.578;11.574;2023-07-13T06:27:52;7.00;;;2.40;;
48002;SDS011;33768;48.578;11.574;2023-07-13T06:30:57;4.60;;;2.20;;
48002;SDS011;33768;48.578;11.574;2023-07-13T06:34:02;6.73;;;2.47;;
48002;SDS011;33768;48.578;11.574;2023-07-13T06:37:06;6.60;;;1.90;;
48002;SDS011;33768;48.578;11.574;2023-07-13T06:40:10;8.97;;;2.17;;
48002;SDS011;33768;48.578;11.574;2023-07-13T06:43:14;2.70;;;1.97;;
48002;SDS011;33768;48.578;11.574;2023-07-13T06:46:20;7.10;;;2.10;;
48002;SDS011;33768;48.578;11.574;2023-07-13T06:49:25;4.50;;;1.60;;
48002;SDS011;33768;48.578;11.574;2023-07-13T06:52:29;5.60;;;2.00;;
48002;SDS011;33768;48.578;11.574;2023-07-13T06:55:34;5.50;;;2.33;;
48002;SDS011;33768;48.578;11.574;2023-07-13T06:58:38;4.10;;;1.80;;
48002;SDS011;33768;48.578;11.574;2023-07-13T07:01:42;4.80;;;2.00;;
48002;SDS011;33768;48.578;11.574;2023-07-13T07:04:46;5.13;;;2.03;;
48002;SDS011;33768;48.578;11.574;2023-07-13T07:07:51;3.53;;;1.77;;
48002;SDS011;33768;48.578;11.574;2023-07-13T07:10:56;4.00;;;2.07;;
48002;SDS011;33768;48.578;11.574;2023-07-13T07:14:00;4.13;;;1.60;;
48002;SDS011;33768;48.578;11.574;2023-07-13T07:17:05;6.27;;;2.00;;
48002;SDS011;33768;48.578;11.574;2023-07-13T07:20:09;8.27;;;2.17;;
48002;SDS011;33768;48.578;11.574;2023-07-13T07:23:14;2.67;;;1.80;;
48002;SDS011;33768;48.578;11.574;2023-07-13T07:26:18;4.60;;;1.87;;
48002;SDS011;33768;48.578;11.574;2023-07-13T07:29:22;4.13;;;1.83;;
48002;SDS011;33768;48.578;11.574;2023-07-13T07:32:29;4.50;;;1.70;;
48002;SDS011;33768;48.578;11.574;2023-07-13T07:35:34;3.73;;;1.80;;
48002;SDS011;33768;48.578;11.574;2023-07-13T07:38:38;9.37;;;2.40;;
48002;SDS011;33768;48.578;11.574;2023-07-13T07:41:42;5.80;;;2.07;;
48002;SDS011;33768;48.578;11.574;2023-07-13T07:44:46;5.87;;;1.40;;
48002;SDS011;33768;48.578;11.574;2023-07-13T07:47:50;3.33;;;1.60;;
48002;SDS011;33768;48.578;11.574;2023-07-13T07:50:55;4.27;;;1.80;;
48002;SDS011;33768;48.578;11.574;2023-07-13T07:53:59;7.87;;;1.90;;
48002;SDS011;33768;48.578;11.574;2023-07-13T07:57:03;4.03;;;1.63;;
48002;SDS011;33768;48.578;11.574;2023-07-13T08:00:07;3.13;;;1.70;;
48002;SDS011;33768;48.578;11.574;2023-07-13T08:03:18;5.53;;;1.83;;
48002;SDS011;33768;48.578;11.574;2023-07-13T08:06:22;3.00;;;1.60;;
48002;SDS011;33768;48.578;11.574;2023-07-13T08:09:27;6.10;;;1.77;;
48002;SDS011;33768;48.578;11.574;2023-07-13T08:12:34;2.70;;;1.70;;
48002;SDS011;33768;48.578;11.574;2023-07-13T08:15:43;6.47;;;1.50;;
48002;SDS011;33768;48.578;11.574;2023-07-13T08:18:47;3.33;;;1.67;;
48002;SDS011;33768;48.578;11.574;2023-07-13T08:21:51;7.03;;;1.67;;
48002;SDS011;33768;48.578;11.574;2023-07-13T08:24:55;2.57;;;1.50;;
48002;SDS011;33768;48.578;11.574;2023-07-13T08:27:59;3.13;;;1.73;;
48002;SDS011;33768;48.578;11.574;2023-07-13T08:31:04;5.90;;;1.67;;
48002;SDS011;33768;48.578;11.574;2023-07-13T08:34:11;6.07;;;1.53;;
48002;SDS011;33768;48.578;11.574;2023-07-13T08:37:15;3.97;;;1.70;;
48002;SDS011;33768;48.578;11.574;2023-07-13T08:40:22;3.93;;;1.47;;
48002;SDS011;33768;48.578;11.574;2023-07-13T08:43:29;8.80;;;1.80;;
48002;SDS011;33768;48.578;11.574;2023-07-13T08:46:38;10.80;;;2.60;;
48002;SDS011;33768;48.578;11.574;2023-07-13T08:49:45;4.95;;;1.52;;
48002;SDS011;33768;48.578;11.574;2023-07-13T08:52:49;5.38;;;1.30;;
48002;SDS011;33768;48.578;11.574;2023-07-13T08:55:56;2.50;;;1.05;;
48002;SDS011;33768;48.578;11.574;2023-07-13T08:59:13;3.22;;;1.27;;
48002;SDS011;33768;48.578;11.574;2023-07-13T09:05:41;1.70;;;0.90;;
48002;SDS011;33768;48.578;11.574;2023-07-13T09:08:57;2.03;;;1.30;;
48002;SDS011;33768;48.578;11.574;2023-07-13T09:15:30;2.85;;;1.50;;
48002;SDS011;33768;48.578;11.574;2023-07-13T09:18:38;3.38;;;1.33;;
48002;SDS011;33768;48.578;11.574;2023-07-13T09:21:46;4.93;;;1.33;;
48002;SDS011;33768;48.578;11.574;2023-07-13T09:24:52;3.80;;;1.27;;
48002;SDS011;33768;48.578;11.574;2023-07-13T09:28:10;4.03;;;1.40;;
48002;SDS011;33768;48.578;11.574;2023-07-13T09:31:20;3.35;;;1.30;;
48002;SDS011;33768;48.578;11.574;2023-07-13T09:34:29;2.97;;;1.02;;
48002;SDS011;33768;48.578;11.574;2023-07-13T09:37:34;2.25;;;1.33;;
48002;SDS011;33768;48.578;11.574;2023-07-13T09:40:42;5.20;;;1.30;;
48002;SDS011;33768;48.578;11.574;2023-07-13T09:47:21;2.72;;;1.08;;
48002;SDS011;33768;48.578;11.574;2023-07-13T09:50:30;5.32;;;1.30;;
48002;SDS011;33768;48.578;11.574;2023-07-13T09:53:34;4.47;;;1.27;;
48002;SDS011;33768;48.578;11.574;2023-07-13T09:56:39;3.38;;;1.38;;
48002;SDS011;33768;48.578;11.574;2023-07-13T09:59:45;2.92;;;1.00;;
48002;SDS011;33768;48.578;11.574;2023-07-13T10:06:14;3.67;;;1.08;;
48002;SDS011;33768;48.578;11.574;2023-07-13T10:09:19;5.47;;;1.40;;
48002;SDS011;33768;48.578;11.574;2023-07-13T10:12:24;2.53;;;1.10;;
48002;SDS011;33768;48.578;11.574;2023-07-13T10:15:29;4.13;;;1.20;;
48002;SDS011;33768;48.578;11.574;2023-07-13T10:18:37;3.40;;;1.17;;
48002;SDS011;33768;48.578;11.574;2023-07-13T10:21:50;1.75;;;1.00;;
48002;SDS011;33768;48.578;11.574;2023-07-13T10:25:07;2.13;;;1.05;;
48002;SDS011;33768;48.578;11.574;2023-07-13T10:31:34;4.22;;;1.23;;
48002;SDS011;33768;48.578;11.574;2023-07-13T10:34:41;2.88;;;1.10;;
48002;SDS011;33768;48.578;11.574;2023-07-13T10:41:12;6.45;;;1.40;;
48002;SDS011;33768;48.578;11.574;2023-07-13T10:44:23;4.25;;;1.15;;
48002;SDS011;33768;48.578;11.574;2023-07-13T10:47:32;2.45;;;1.00;;
48002;SDS011;33768;48.578;11.574;2023-07-13T10:50:36;3.88;;;1.65;;
48002;SDS011;33768;48.578;11.574;2023-07-13T10:53:46;2.78;;;1.00;;
48002;SDS011;33768;48.578;11.574;2023-07-13T10:56:53;2.22;;;1.10;;
48002;SDS011;33768;48.578;11.574;2023-07-13T11:00:21;2.40;;;1.00;;
48002;SDS011;33768;48.578;11.574;2023-07-13T11:03:25;3.50;;;1.30;;
48002;SDS011;33768;48.578;11.574;2023-07-13T11:06:41;4.63;;;1.40;;
48002;SDS011;33768;48.578;11.574;2023-07-13T11:09:50;2.97;;;1.15;;
48002;SDS011;33768;48.578;11.574;2023-07-13T11:12:56;5.03;;;1.40;;
48002;SDS011;33768;48.578;11.574;2023-07-13T11:16:00;5.10;;;1.30;;
48002;SDS011;33768;48.578;11.574;2023-07-13T11:22:12;6.00;;;1.10;;
48002;SDS011;33768;48.578;11.574;2023-07-13T11:28:31;4.80;;;1.48;;
48002;SDS011;33768;48.578;11.574;2023-07-13T11:31:36;2.03;;;1.00;;
48002;SDS011;33768;48.578;11.574;2023-07-13T11:34:40;2.72;;;1.33;;
48002;SDS011;33768;48.578;11.574;2023-07-13T11:37:46;3.67;;;1.27;;
48002;SDS011;33768;48.578;11.574;2023-07-13T11:40:51;2.63;;;1.20;;
48002;SDS011;33768;48.578;11.574;2023-07-13T11:44:08;2.65;;;1.27;;
48002;SDS011;33768;48.578;11.574;2023-07-13T11:47:18;3.25;;;1.30;;
48002;SDS011;33768;48.578;11.574;2023-07-13T11:50:26;1.95;;;1.20;;
48002;SDS011;33768;48.578;11.574;2023-07-13T11:53:35;3.10;;;1.42;;
48002;SDS011;33768;48.578;11.574;2023-07-13T11:56:43;3.40;;;1.00;;
48002;SDS011;33768;48.578;11.574;2023-07-13T11:59:47;3.05;;;1.25;;
48002;SDS011;33768;48.578;11.574;2023-07-13T12:02:51;1.80;;;1.42;;
48002;SDS011;33768;48.578;11.574;2023-07-13T12:05:59;2.40;;;1.17;;
48002;SDS011;33768;48.578;11.574;2023-07-13T12:09:12;3.38;;;1.02;;
48002;SDS011;33768;48.578;11.574;2023-07-13T12:12:22;5.15;;;1.23;;
48002;SDS011;33768;48.578;11.574;2023-07-13T12:15:39;5.20;;;1.50;;
48002;SDS011;33768;48.578;11.574;2023-07-13T12:18:45;2.22;;;1.15;;
48002;SDS011;33768;48.578;11.574;2023-07-13T12:21:50;4.30;;;1.40;;
48002;SDS011;33768;48.578;11.574;2023-07-13T12:24:56;3.80;;;1.40;;
48002;SDS011;33768;48.578;11.574;2023-07-13T12:28:00;4.93;;;1.58;;
48002;SDS011;33768;48.578;11.574;2023-07-13T12:31:37;2.28;;;1.30;;
48002;SDS011;33768;48.578;11.574;2023-07-13T12:34:51;2.70;;;1.45;;
48002;SDS011;33768;48.578;11.574;2023-07-13T12:37:58;2.65;;;1.48;;
48002;SDS011;33768;48.578;11.574;2023-07-13T12:41:04;2.50;;;1.30;;
48002;SDS011;33768;48.578;11.574;2023-07-13T12:44:13;2.13;;;1.27;;
48002;SDS011;33768;48.578;11.574;2023-07-13T12:47:20;3.13;;;1.45;;
48002;SDS011;33768;48.578;11.574;2023-07-13T12:50:28;4.07;;;1.50;;
48002;SDS011;33768;48.578;11.574;2023-07-13T12:53:48;3.45;;;1.30;;
48002;SDS011;33768;48.578;11.574;2023-07-13T12:56:54;3.90;;;1.30;;
48002;SDS011;33768;48.578;11.574;2023-07-13T13:00:02;2.83;;;1.02;;
48002;SDS011;33768;48.578;11.574;2023-07-13T13:06:30;3.70;;;1.42;;
48002;SDS011;33768;48.578;11.574;2023-07-13T13:09:34;2.88;;;1.48;;
48002;SDS011;33768;48.578;11.574;2023-07-13T13:12:39;5.00;;;1.23;;
48002;SDS011;33768;48.578;11.574;2023-07-13T13:15:46;1.20;;;1.10;;
48002;SDS011;33768;48.578;11.574;2023-07-13T13:18:51;2.67;;;1.15;;
48002;SDS011;33768;48.578;11.574;2023-07-13T13:21:57;2.33;;;1.40;;
48002;SDS011;33768;48.578;11.574;2023-07-13T13:25:03;2.97;;;1.45;;
48002;SDS011;33768;48.578;11.574;2023-07-13T13:28:12;2.78;;;1.42;;
48002;SDS011;33768;48.578;11.574;2023-07-13T13:31:18;3.00;;;1.73;;
48002;SDS011;33768;48.578;11.574;2023-07-13T13:34:23;3.05;;;1.38;;
48002;SDS011;33768;48.578;11.574;2023-07-13T13:37:28;5.10;;;1.45;;
48002;SDS011;33768;48.578;11.574;2023-07-13T13:40:32;2.95;;;1.30;;
48002;SDS011;33768;48.578;11.574;2023-07-13T13:43:36;2.45;;;1.63;;
48002;SDS011;33768;48.578;11.574;2023-07-13T13:46:40;5.15;;;2.90;;
48002;SDS011;33768;48.578;11.574;2023-07-13T13:49:45;4.22;;;1.50;;
48002;SDS011;33768;48.578;11.574;2023-07-13T13:52:50;2.63;;;1.25;;
48002;SDS011;33768;48.578;11.574;2023-07-13T13:55:55;3.67;;;1.40;;
48002;SDS011;33768;48.578;11.574;2023-07-13T13:58:59;2.92;;;1.20;;
48002;SDS011;33768;48.578;11.574;2023-07-13T14:02:07;3.72;;;1.15;;
48002;SDS011;33768;48.578;11.574;2023-07-13T14:05:25;2.33;;;1.15;;
48002;SDS011;33768;48.578;11.574;2023-07-13T14:08:30;2.67;;;1.50;;
48002;SDS011;33768;48.578;11.574;2023-07-13T14:11:34;2.25;;;1.20;;
48002;SDS011;33768;48.578;11.574;2023-07-13T14:14:39;2.88;;;1.20;;
48002;SDS011;33768;48.578;11.574;2023-07-13T14:17:44;2.22;;;1.10;;
48002;SDS011;33768;48.578;11.574;2023-07-13T14:20:48;3.20;;;1.20;;
48002;SDS011;33768;48.578;11.574;2023-07-13T14:23:54;3.47;;;1.17;;
48002;SDS011;33768;48.578;11.574;2023-07-13T14:26:58;3.72;;;1.23;;
48002;SDS011;33768;48.578;11.574;2023-07-13T14:30:02;4.47;;;1.40;;
48002;SDS011;33768;48.578;11.574;2023-07-13T14:33:08;2.55;;;1.13;;
48002;SDS011;33768;48.578;11.574;2023-07-13T14:36:29;2.72;;;1.27;;
48002;SDS011;33768;48.578;11.574;2023-07-13T14:39:36;3.88;;;1.05;;
48002;SDS011;33768;48.578;11.574;2023-07-13T14:42:40;2.00;;;1.30;;
48002;SDS011;33768;48.578;11.574;2023-07-13T14:45:46;3.90;;;1.35;;
48002;SDS011;33768;48.578;11.574;2023-07-13T14:48:54;12.23;;;2.03;;
48002;SDS011;33768;48.578;11.574;2023-07-13T14:52:18;2.28;;;1.33;;
48002;SDS011;33768;48.578;11.574;2023-07-13T14:55:23;2.17;;;1.10;;
48002;SDS011;33768;48.578;11.574;2023-07-13T14:58:29;2.03;;;1.20;;
48002;SDS011;33768;48.578;11.574;2023-07-13T15:01:36;1.58;;;1.17;;
48002;SDS011;33768;48.578;11.574;2023-07-13T15:04:41;2.33;;;1.20;;
48002;SDS011;33768;48.578;11.574;2023-07-13T15:07:44;3.67;;;1.30;;
48002;SDS011;33768;48.578;11.574;2023-07-13T15:10:48;3.03;;;1.25;;
48002;SDS011;33768;48.578;11.574;2023-07-13T15:13:52;2.05;;;1.00;;
48002;SDS011;33768;48.578;11.574;2023-07-13T15:16:57;1.38;;;1.10;;
48002;SDS011;33768;48.578;11.574;2023-07-13T15:20:01;1.90;;;1.02;;
48002;SDS011;33768;48.578;11.574;2023-07-13T15:23:05;2.03;;;0.98;;
48002;SDS011;33768;48.578;11.574;2023-07-13T15:26:13;2.55;;;1.15;;
48002;SDS011;33768;48.578;11.574;2023-07-13T15:29:18;3.15;;;1.00;;
48002;SDS011;33768;48.578;11.574;2023-07-13T15:32:22;2.33;;;1.23;;
48002;SDS011;33768;48.578;11.574;2023-07-13T15:35:27;2.88;;;1.02;;
48002;SDS011;33768;48.578;11.574;2023-07-13T15:38:31;3.78;;;1.40;;
48002;SDS011;33768;48.578;11.574;2023-07-13T15:41:37;4.47;;;1.38;;
48002;SDS011;33768;48.578;11.574;2023-07-13T15:44:41;1.95;;;1.17;;
48002;SDS011;33768;48.578;11.574;2023-07-13T15:47:46;6.47;;;1.38;;
48002;SDS011;33768;48.578;11.574;2023-07-13T15:50:51;3.50;;;1.10;;
48002;SDS011;33768;48.578;11.574;2023-07-13T15:54:01;2.50;;;1.27;;
48002;SDS011;33768;48.578;11.574;2023-07-13T15:57:09;1.73;;;1.00;;
48002;SDS011;33768;48.578;11.574;2023-07-13T16:03:24;4.72;;;1.42;;
48002;SDS011;33768;48.578;11.574;2023-07-13T16:06:30;2.67;;;1.30;;
48002;SDS011;33768;48.578;11.574;2023-07-13T16:09:38;2.38;;;1.10;;
48002;SDS011;33768;48.578;11.574;2023-07-13T16:12:44;7.22;;;1.45;;
48002;SDS011;33768;48.578;11.574;2023-07-13T16:15:48;2.00;;;1.10;;
48002;SDS011;33768;48.578;11.574;2023-07-13T16:18:53;2.50;;;1.00;;
48002;SDS011;33768;48.578;11.574;2023-07-13T16:21:59;3.05;;;1.20;;
48002;SDS011;33768;48.578;11.574;2023-07-13T16:25:17;2.95;;;1.15;;
48002;SDS011;33768;48.578;11.574;2023-07-13T16:28:23;2.95;;;1.20;;
48002;SDS011;33768;48.578;11.574;2023-07-13T16:31:32;5.03;;;1.50;;
48002;SDS011;33768;48.578;11.574;2023-07-13T16:34:37;5.38;;;1.40;;
48002;SDS011;33768;48.578;11.574;2023-07-13T16:37:42;3.97;;;1.30;;
48002;SDS011;33768;48.578;11.574;2023-07-13T16:40:46;3.75;;;0.98;;
48002;SDS011;33768;48.578;11.574;2023-07-13T16:43:53;1.35;;;1.10;;
48002;SDS011;33768;48.578;11.574;2023-07-13T16:46:58;2.28;;;1.20;;
48002;SDS011;33768;48.578;11.574;2023-07-13T16:50:09;1.92;;;1.05;;
48002;SDS011;33768;48.578;11.574;2023-07-13T16:53:20;2.65;;;1.17;;
48002;SDS011;33768;48.578;11.574;2023-07-13T16:56:26;2.03;;;1.10;;
48002;SDS011;33768;48.578;11.574;2023-07-13T16:59:30;2.08;;;1.08;;
48002;SDS011;33768;48.578;11.574;2023-07-13T17:02:37;3.90;;;1.08;;
48002;SDS011;33768;48.578;11.574;2023-07-13T17:05:42;2.22;;;1.10;;
48002;SDS011;33768;48.578;11.574;2023-07-13T17:08:48;2.40;;;1.10;;
48002;SDS011;33768;48.578;11.574;2023-07-13T17:11:54;3.55;;;0.90;;
48002;SDS011;33768;48.578;11.574;2023-07-13T17:15:00;3.28;;;1.17;;
48002;SDS011;33768;48.578;11.574;2023-07-13T17:18:05;3.08;;;1.20;;
48002;SDS011;33768;48.578;11.574;2023-07-13T17:21:13;8.02;;;1.20;;
48002;SDS011;33768;48.578;11.574;2023-07-13T17:24:25;1.97;;;1.10;;
48002;SDS011;33768;48.578;11.574;2023-07-13T17:27:31;2.57;;;1.20;;
48002;SDS011;33768;48.578;11.574;2023-07-13T17:30:38;2.63;;;0.93;;
48002;SDS011;33768;48.578;11.574;2023-07-13T17:33:44;4.17;;;1.47;;
48002;SDS011;33768;48.578;11.574;2023-07-13T17:36:49;4.13;;;1.30;;
48002;SDS011;33768;48.578;11.574;2023-07-13T17:39:53;1.73;;;1.27;;
48002;SDS011;33768;48.578;11.574;2023-07-13T17:42:57;3.20;;;1.07;;
48002;SDS011;33768;48.578;11.574;2023-07-13T17:46:02;2.20;;;1.17;;
48002;SDS011;33768;48.578;11.574;2023-07-13T17:49:18;4.53;;;1.30;;
48002;SDS011;33768;48.578;11.574;2023-07-13T17:52:33;4.37;;;1.30;;
48002;SDS011;33768;48.578;11.574;2023-07-13T17:55:37;4.00;;;1.50;;
48002;SDS011;33768;48.578;11.574;2023-07-13T17:58:42;2.47;;;1.03;;
48002;SDS011;33768;48.578;11.574;2023-07-13T18:01:46;3.83;;;1.43;;
48002;SDS011;33768;48.578;11.574;2023-07-13T18:04:50;2.97;;;1.30;;
48002;SDS011;33768;48.578;11.574;2023-07-13T18:07:54;2.10;;;1.20;;
48002;SDS011;33768;48.578;11.574;2023-07-13T18:11:00;2.53;;;0.90;;
48002;SDS011;33768;48.578;11.574;2023-07-13T18:14:05;2.43;;;1.37;;
48002;SDS011;33768;48.578;11.574;2023-07-13T18:17:10;2.13;;;1.07;;
48002;SDS011;33768;48.578;11.574;2023-07-13T18:20:17;5.57;;;1.50;;
48002;SDS011;33768;48.578;11.574;2023-07-13T18:23:25;3.47;;;1.20;;
48002;SDS011;33768;48.578;11.574;2023-07-13T18:26:29;2.50;;;1.23;;
48002;SDS011;33768;48.578;11.574;2023-07-13T18:29:34;4.23;;;1.30;;
48002;SDS011;33768;48.578;11.574;2023-07-13T18:32:39;3.00;;;1.60;;
48002;SDS011;33768;48.578;11.574;2023-07-13T18:35:44;6.53;;;1.40;;
48002;SDS011;33768;48.578;11.574;2023-07-13T18:38:49;3.80;;;1.27;;
48002;SDS011;33768;48.578;11.574;2023-07-13T18:41:53;7.60;;;1.23;;
48002;SDS011;33768;48.578;11.574;2023-07-13T18:44:57;4.27;;;1.20;;
48002;SDS011;33768;48.578;11.574;2023-07-13T18:48:01;2.53;;;1.20;;
48002;SDS011;33768;48.578;11.574;2023-07-13T18:51:07;3.57;;;1.13;;
48002;SDS011;33768;48.578;11.574;2023-07-13T18:54:14;4.33;;;1.50;;
48002;SDS011;33768;48.578;11.574;2023-07-13T18:57:18;3.80;;;1.50;;
48002;SDS011;33768;48.578;11.574;2023-07-13T19:00:24;3.77;;;1.30;;